Irtyshsk, Kazakhstan
Current Conditions -  °F | °C
As of 6:30 PM on Thursday 25 Dec 2014 (Local Time) from UASP Reporting Station
Clear Clear  
Wind Chill: 11°   Ceiling: Unl
Heat Index: 25°   Visibility: 6mi
Dew Point: 21°   Wind: 18mph
Humidity: 86%   Direction: 150°SSE
Pressure: 29.83"   Gusts: NA
Location:  53.33°N, 75.46°E
Report Text: UASP 251230Z 15008MPS CAVOK M04/M06 Q1010 R21/720150 NOSIG RMKQFE746/0995
Loading
Personal Weather Stations






























Interactive Weather Map New forecast layout! Learn more

10-Day Weather Forecast

Advertisements
Track Severe Weather on mobile